createdAt,value
2022-12-17T00:02:41.405Z,59.33
2022-12-17T00:05:27.625Z,58.80
2022-12-17T00:08:17.593Z,56.92
2022-12-17T00:11:04.438Z,58.70
2022-12-17T00:13:49.844Z,65.63
2022-12-17T00:16:35.721Z,68.88
2022-12-17T00:19:21.187Z,60.67
2022-12-17T00:22:14.569Z,62.78
2022-12-17T00:25:00.132Z,57.33
2022-12-17T00:27:46.354Z,54.72
2022-12-17T00:30:31.755Z,62.33
2022-12-17T00:33:17.573Z,65.70
2022-12-17T00:36:19.774Z,65.22
2022-12-17T00:39:05.989Z,50.30
2022-12-17T00:41:51.660Z,60.75
2022-12-17T00:44:37.644Z,60.60
2022-12-17T00:47:22.910Z,61.55
2022-12-17T00:50:08.873Z,68.15
2022-12-17T00:52:54.430Z,60.17
2022-12-17T00:55:42.408Z,58.53
2022-12-17T00:58:27.893Z,55.83
2022-12-17T01:01:18.364Z,60.20
2022-12-17T01:04:04.157Z,60.25
2022-12-17T01:06:50.159Z,60.88
2022-12-17T01:09:36.535Z,70.57
2022-12-17T01:12:22.530Z,60.30
2022-12-17T01:15:07.834Z,69.72
2022-12-17T01:17:53.650Z,63.22
2022-12-17T01:20:41.729Z,62.22
2022-12-17T01:23:38.796Z,60.85
2022-12-17T01:26:24.858Z,65.47
2022-12-17T01:29:11.033Z,56.60
2022-12-17T01:31:56.391Z,52.00
2022-12-17T01:34:42.281Z,50.35
2022-12-17T01:37:27.871Z,65.22
2022-12-17T01:40:24.274Z,61.28
2022-12-17T01:43:10.070Z,60.40
2022-12-17T01:45:59.977Z,69.25
2022-12-17T01:49:06.042Z,59.35
2022-12-17T01:51:53.616Z,63.25
2022-12-17T01:54:39.072Z,68.35
2022-12-17T01:57:26.160Z,65.60
2022-12-17T02:00:27.230Z,69.30
2022-12-17T02:03:13.433Z,68.22
2022-12-17T02:06:10.323Z,71.78
2022-12-17T02:09:18.269Z,61.70
2022-12-17T02:12:23.007Z,49.78
2022-12-17T02:15:19.288Z,61.67
2022-12-17T02:18:11.995Z,47.42
2022-12-17T02:21:05.544Z,62.72
2022-12-17T02:24:00.231Z,61.08
2022-12-17T02:27:07.761Z,54.25
2022-12-17T02:29:58.972Z,43.28
2022-12-17T02:32:45.705Z,56.15
2022-12-17T02:35:35.508Z,63.55
2022-12-17T02:38:34.815Z,49.92
2022-12-17T02:41:21.135Z,51.67
2022-12-17T02:44:07.397Z,56.47
2022-12-17T02:46:53.382Z,56.83
2022-12-17T02:49:39.519Z,57.45
2022-12-17T02:52:25.562Z,54.13
2022-12-17T02:55:11.556Z,54.78
2022-12-17T02:57:57.032Z,57.85
2022-12-17T03:00:43.263Z,53.90
2022-12-17T03:03:28.971Z,54.08
2022-12-17T03:06:15.147Z,59.95
2022-12-17T03:09:00.561Z,55.03
2022-12-17T03:11:48.410Z,54.05
2022-12-17T03:14:34.199Z,53.45
2022-12-17T03:17:20.162Z,41.60
2022-12-17T03:20:05.548Z,50.70
2022-12-17T03:22:51.806Z,58.17
2022-12-17T03:25:37.824Z,52.25
2022-12-17T03:28:26.450Z,47.97
2022-12-17T03:31:12.080Z,55.15
2022-12-17T03:33:58.146Z,52.65
2022-12-17T03:36:43.659Z,51.20
2022-12-17T03:39:29.681Z,55.30
2022-12-17T03:42:19.652Z,60.65
2022-12-17T03:45:05.838Z,48.25
2022-12-17T03:47:51.449Z,48.67
2022-12-17T03:50:37.451Z,51.90
2022-12-17T03:53:23.573Z,56.70
2022-12-17T03:56:09.214Z,59.00
2022-12-17T03:58:54.564Z,48.30
2022-12-17T04:01:40.581Z,49.85
2022-12-17T04:04:26.173Z,49.08
2022-12-17T04:07:12.074Z,46.15
2022-12-17T04:09:57.655Z,45.08
2022-12-17T04:12:43.430Z,41.53
2022-12-17T04:15:29.501Z,46.70
2022-12-17T04:18:15.354Z,53.38
2022-12-17T04:21:01.001Z,50.92
2022-12-17T04:23:46.936Z,48.28
2022-12-17T04:26:32.467Z,43.30
2022-12-17T04:29:18.596Z,47.35
2022-12-17T04:32:04.058Z,51.88
2022-12-17T04:34:50.002Z,50.15
2022-12-17T04:37:35.382Z,45.65
2022-12-17T04:40:21.776Z,53.10
2022-12-17T04:43:07.245Z,41.67
2022-12-17T04:45:53.567Z,44.03
2022-12-17T04:48:42.069Z,46.13
2022-12-17T04:51:28.680Z,45.25
2022-12-17T04:54:13.959Z,47.20
2022-12-17T04:57:00.279Z,52.42
2022-12-17T04:59:45.763Z,48.85
2022-12-17T05:02:31.898Z,47.88
2022-12-17T05:05:17.789Z,48.03
2022-12-17T05:08:03.575Z,43.45
2022-12-17T05:10:49.010Z,61.15
2022-12-17T05:13:34.977Z,51.83
2022-12-17T05:16:20.761Z,53.63
2022-12-17T05:19:07.092Z,51.83
2022-12-17T05:21:52.583Z,51.22
2022-12-17T05:24:38.561Z,51.30
2022-12-17T05:27:24.511Z,51.50
2022-12-17T05:30:10.312Z,36.97
2022-12-17T05:32:55.773Z,40.83
2022-12-17T05:35:41.778Z,54.58
2022-12-17T05:38:29.108Z,55.22
2022-12-17T05:41:17.193Z,47.75
2022-12-17T05:44:03.869Z,44.60
2022-12-17T05:46:49.795Z,49.65
2022-12-17T05:49:35.533Z,51.75
2022-12-17T05:52:21.641Z,50.35
2022-12-17T05:55:26.897Z,46.60
2022-12-17T05:58:24.513Z,46.80
2022-12-17T06:01:18.684Z,52.25
2022-12-17T06:04:04.665Z,48.58
2022-12-17T06:06:50.074Z,50.10
2022-12-17T06:09:36.288Z,50.17
2022-12-17T06:12:21.604Z,53.30
2022-12-17T06:15:07.666Z,51.03
2022-12-17T06:17:53.072Z,54.08
2022-12-17T06:20:39.181Z,54.10
2022-12-17T06:23:29.263Z,47.40
2022-12-17T06:26:16.093Z,41.13
2022-12-17T06:29:02.083Z,52.13
2022-12-17T06:31:48.150Z,49.00
2022-12-17T06:34:34.070Z,39.15
2022-12-17T06:37:20.075Z,43.38
2022-12-17T06:40:05.564Z,46.45
2022-12-17T06:42:51.534Z,41.88
2022-12-17T06:45:37.219Z,49.17
2022-12-17T06:48:25.145Z,59.63
2022-12-17T06:51:13.133Z,46.97
2022-12-17T06:53:59.648Z,51.85
2022-12-17T06:56:45.194Z,45.97
2022-12-17T06:59:31.178Z,51.05
2022-12-17T07:02:16.935Z,47.63
2022-12-17T07:05:03.479Z,55.13
2022-12-17T07:07:48.843Z,40.65
2022-12-17T07:10:34.863Z,37.10
2022-12-17T07:13:32.345Z,45.85
2022-12-17T07:16:18.294Z,41.13
2022-12-17T07:19:03.994Z,49.33
2022-12-17T07:21:50.242Z,48.97
2022-12-17T07:24:35.865Z,60.53
2022-12-17T07:27:21.443Z,42.42
2022-12-17T07:30:07.118Z,46.03
2022-12-17T07:32:53.311Z,50.85
2022-12-17T07:35:39.713Z,52.50
2022-12-17T07:38:26.127Z,54.50
2022-12-17T07:41:11.450Z,49.47
2022-12-17T07:43:57.583Z,53.65
2022-12-17T07:46:43.384Z,45.75
2022-12-17T07:49:29.635Z,49.38
2022-12-17T07:52:15.042Z,48.80
2022-12-17T07:55:01.571Z,53.97
2022-12-17T07:57:47.056Z,67.30
2022-12-17T08:00:33.192Z,58.10
2022-12-17T08:03:19.811Z,90.97
2022-12-17T08:06:06.029Z,90.70
2022-12-17T08:08:51.453Z,78.72
2022-12-17T08:11:37.364Z,57.22
2022-12-17T08:14:22.838Z,72.95
2022-12-17T08:17:08.784Z,54.28
2022-12-17T08:19:54.199Z,42.50
2022-12-17T08:22:53.812Z,53.28
2022-12-17T08:25:39.413Z,60.60
2022-12-17T08:28:49.730Z,55.65
2022-12-17T08:31:32.826Z,61.47
2022-12-17T08:34:18.740Z,57.03
2022-12-17T08:37:04.203Z,56.03
2022-12-17T08:39:50.359Z,44.25
2022-12-17T08:42:36.108Z,56.35
2022-12-17T08:45:22.813Z,64.70
2022-12-17T08:48:08.258Z,62.22
2022-12-17T08:50:54.395Z,55.42
2022-12-17T08:53:40.252Z,50.95
2022-12-17T08:56:26.699Z,53.50
2022-12-17T08:59:12.226Z,64.45
2022-12-17T09:01:58.646Z,69.32
2022-12-17T09:04:44.447Z,54.40
2022-12-17T09:07:30.431Z,59.47
2022-12-17T09:10:15.882Z,55.55
2022-12-17T09:13:04.987Z,59.53
2022-12-17T09:15:51.315Z,72.32
2022-12-17T09:18:39.182Z,65.00
2022-12-17T09:21:25.467Z,73.35
2022-12-17T09:24:11.648Z,75.13
2022-12-17T09:26:57.126Z,71.15
2022-12-17T09:29:43.101Z,73.13
2022-12-17T09:32:29.183Z,72.53
2022-12-17T09:35:15.199Z,60.60
2022-12-17T09:38:00.720Z,69.90
2022-12-17T09:40:48.256Z,71.80
2022-12-17T09:43:45.797Z,94.57
2022-12-17T09:46:48.201Z,78.57
2022-12-17T09:49:40.935Z,67.10
2022-12-17T09:52:41.730Z,63.35
2022-12-17T09:55:34.159Z,61.20
2022-12-17T09:58:21.927Z,61.97
2022-12-17T10:01:08.419Z,61.08
2022-12-17T10:03:56.091Z,59.78
2022-12-17T10:06:45.777Z,57.10
2022-12-17T10:09:34.475Z,53.60
2022-12-17T10:12:34.973Z,67.90
2022-12-17T10:15:21.760Z,70.18
2022-12-17T10:18:07.277Z,61.22
2022-12-17T10:21:09.648Z,58.05
2022-12-17T10:23:55.062Z,63.33
2022-12-17T10:26:45.184Z,70.35
2022-12-17T10:29:42.426Z,59.88
2022-12-17T10:32:39.829Z,46.30
2022-12-17T10:35:46.093Z,60.35
2022-12-17T10:38:38.430Z,62.65
2022-12-17T10:41:23.982Z,46.55
2022-12-17T10:44:09.881Z,54.72
2022-12-17T10:46:55.448Z,57.55
2022-12-17T10:49:43.447Z,52.95
2022-12-17T10:52:50.246Z,55.40
2022-12-17T10:55:43.792Z,46.22
2022-12-17T10:58:39.113Z,49.75
2022-12-17T11:01:29.429Z,44.78
2022-12-17T11:04:17.381Z,54.20
2022-12-17T11:07:10.597Z,49.97
2022-12-17T11:10:09.980Z,49.08
2022-12-17T11:13:02.160Z,51.80
2022-12-17T11:16:03.905Z,49.28
2022-12-17T11:19:03.459Z,45.78
2022-12-17T11:22:15.421Z,43.47
2022-12-17T11:25:24.542Z,43.28
2022-12-17T11:28:20.485Z,43.42
2022-12-17T11:31:16.791Z,42.72
2022-12-17T11:34:34.010Z,35.97
2022-12-17T11:37:32.563Z,40.22
2022-12-17T11:40:24.537Z,43.90
2022-12-17T11:43:19.787Z,49.45
2022-12-17T11:46:47.882Z,38.65
2022-12-17T11:49:46.038Z,37.90
2022-12-17T11:53:09.044Z,38.85
2022-12-17T11:56:10.704Z,39.33
2022-12-17T11:59:00.809Z,36.15
2022-12-17T12:02:11.657Z,39.85
2022-12-17T12:05:32.721Z,48.00
2022-12-17T12:08:45.011Z,41.97
2022-12-17T12:11:44.344Z,36.97
2022-12-17T12:15:13.957Z,29.77
2022-12-17T12:18:11.520Z,31.67
2022-12-17T12:21:30.463Z,45.67
2022-12-17T12:24:34.341Z,31.58
2022-12-17T12:27:49.980Z,40.60
2022-12-17T12:30:40.508Z,28.20
2022-12-17T12:33:44.092Z,35.85
2022-12-17T12:36:33.167Z,38.60
2022-12-17T12:39:19.337Z,40.30
2022-12-17T12:42:21.082Z,40.38
2022-12-17T12:45:46.269Z,36.15
2022-12-17T12:48:40.634Z,32.33
2022-12-17T12:51:38.830Z,28.33
2022-12-17T12:54:47.655Z,30.70
2022-12-17T12:57:51.474Z,36.72
2022-12-17T13:01:06.929Z,34.58
2022-12-17T13:04:19.028Z,41.35
2022-12-17T13:06:52.516Z,39.00
2022-12-17T13:09:21.198Z,33.35
2022-12-17T13:12:01.970Z,41.60
2022-12-17T13:14:34.562Z,44.17
2022-12-17T13:17:21.711Z,33.63
2022-12-17T13:19:57.999Z,44.65
2022-12-17T13:22:24.932Z,42.22
2022-12-17T13:24:55.155Z,35.78
2022-12-17T13:27:33.718Z,32.22
2022-12-17T13:30:21.977Z,34.13
2022-12-17T13:33:21.269Z,24.98
2022-12-17T13:36:13.287Z,28.23
2022-12-17T13:38:55.081Z,31.73
2022-12-17T13:41:31.820Z,35.13
2022-12-17T13:44:02.895Z,33.20
2022-12-17T13:46:46.739Z,32.70
2022-12-17T13:49:22.743Z,28.38
2022-12-17T13:52:11.117Z,33.92
2022-12-17T13:54:39.009Z,33.38
2022-12-17T13:57:13.637Z,28.25
2022-12-17T13:59:40.722Z,26.13
2022-12-17T14:02:30.745Z,35.70
2022-12-17T14:05:05.809Z,26.05
2022-12-17T14:07:38.987Z,33.35
2022-12-17T14:10:14.584Z,29.40
2022-12-17T14:12:42.114Z,36.65
2022-12-17T14:15:24.532Z,33.42
2022-12-17T14:17:53.512Z,29.33
2022-12-17T14:20:24.934Z,22.92
2022-12-17T14:23:01.149Z,26.50
2022-12-17T14:25:34.320Z,35.17
2022-12-17T14:28:07.232Z,29.30
2022-12-17T14:30:46.143Z,23.75
2022-12-17T14:33:29.219Z,31.38
2022-12-17T14:35:57.913Z,31.02
2022-12-17T14:38:37.901Z,27.05
2022-12-17T14:41:31.859Z,27.63
2022-12-17T14:44:00.912Z,31.05
2022-12-17T14:46:29.919Z,33.65
2022-12-17T14:49:01.913Z,26.00
2022-12-17T14:51:35.560Z,29.70
2022-12-17T14:54:29.317Z,25.33
2022-12-17T14:59:26.288Z,33.95
2022-12-17T15:01:56.505Z,24.90
2022-12-17T15:04:24.196Z,33.20
2022-12-17T15:06:54.671Z,36.67
2022-12-17T15:09:22.230Z,41.47
2022-12-17T15:11:49.361Z,42.08
2022-12-17T15:14:17.015Z,30.70
2022-12-17T15:16:43.901Z,32.95
2022-12-17T15:19:11.515Z,44.75
2022-12-17T15:21:38.466Z,53.28
2022-12-17T15:24:10.383Z,47.70
2022-12-17T15:26:37.224Z,45.47
2022-12-17T15:29:04.716Z,30.65
2022-12-17T15:31:35.395Z,33.38
2022-12-17T15:34:03.151Z,32.63
2022-12-17T15:36:31.987Z,44.55
2022-12-17T15:38:59.689Z,48.67
2022-12-17T15:41:45.176Z,36.33
2022-12-17T15:44:13.118Z,31.52
2022-12-17T15:46:40.220Z,43.10
2022-12-17T15:49:07.768Z,40.38
2022-12-17T15:51:34.722Z,36.22
2022-12-17T15:54:04.229Z,43.83
2022-12-17T15:56:31.127Z,34.83
2022-12-17T15:58:59.131Z,45.45
2022-12-17T16:01:26.257Z,46.00
2022-12-17T16:03:53.838Z,44.10
2022-12-17T16:06:20.897Z,45.25
2022-12-17T16:08:48.119Z,45.42
2022-12-17T16:11:16.134Z,54.40
2022-12-17T16:13:43.316Z,53.20
2022-12-17T16:16:10.813Z,45.83
2022-12-17T16:18:38.956Z,44.92
2022-12-17T16:21:07.891Z,51.65
2022-12-17T16:23:35.846Z,53.78
2022-12-17T16:26:05.580Z,45.47
2022-12-17T16:28:33.981Z,49.40
2022-12-17T16:31:06.964Z,39.92
2022-12-17T16:33:36.747Z,41.85
2022-12-17T16:36:04.472Z,48.40
2022-12-17T16:38:31.689Z,42.75
2022-12-17T16:41:01.853Z,42.85
2022-12-17T16:43:34.623Z,41.35
2022-12-17T16:46:02.678Z,51.17
2022-12-17T16:48:37.849Z,49.22
2022-12-17T16:51:19.039Z,63.42
2022-12-17T16:53:51.509Z,43.55
2022-12-17T16:56:25.097Z,57.95
2022-12-17T16:58:52.757Z,43.50
2022-12-17T17:01:21.197Z,38.90
2022-12-17T17:03:49.275Z,49.95
2022-12-17T17:06:17.724Z,50.20
2022-12-17T17:08:45.088Z,49.17
2022-12-17T17:11:13.453Z,44.30
2022-12-17T17:13:40.773Z,36.40
2022-12-17T17:16:09.631Z,33.83
2022-12-17T17:18:38.184Z,42.15
2022-12-17T17:21:20.502Z,36.22
2022-12-17T17:23:53.762Z,38.33
2022-12-17T17:26:24.692Z,34.53
2022-12-17T17:28:52.136Z,36.63
2022-12-17T17:31:21.693Z,29.63
2022-12-17T17:33:50.495Z,34.00
2022-12-17T17:36:23.717Z,35.58
2022-12-17T17:38:52.766Z,40.75
2022-12-17T17:41:22.364Z,39.03
2022-12-17T17:43:54.983Z,31.55
2022-12-17T17:46:22.290Z,37.80
2022-12-17T17:48:53.975Z,44.50
2022-12-17T17:51:59.832Z,39.78
2022-12-17T17:54:14.675Z,35.47
2022-12-17T17:56:42.972Z,35.08
2022-12-17T17:59:12.964Z,25.63
2022-12-17T18:01:45.000Z,29.88
2022-12-17T18:04:15.336Z,25.70
2022-12-17T18:07:02.623Z,32.28
2022-12-17T18:09:31.158Z,27.13
2022-12-17T18:12:18.052Z,29.77
2022-12-17T18:15:11.903Z,30.42
2022-12-17T18:17:32.123Z,27.15
2022-12-17T18:19:59.565Z,35.55
2022-12-17T18:22:26.490Z,30.23
2022-12-17T18:24:53.879Z,46.53
2022-12-17T18:27:20.875Z,40.40
2022-12-17T18:29:48.531Z,38.75
2022-12-17T18:32:15.368Z,39.60
2022-12-17T18:34:42.642Z,36.50
2022-12-17T18:37:09.554Z,37.03
2022-12-17T18:39:36.691Z,39.30
2022-12-17T18:42:22.447Z,37.38
2022-12-17T18:44:49.930Z,44.78
2022-12-17T18:47:16.887Z,37.38
2022-12-17T18:49:45.067Z,39.92
2022-12-17T18:52:16.704Z,36.65
2022-12-17T18:54:45.007Z,33.47
2022-12-17T18:57:12.254Z,47.78
2022-12-17T18:59:41.334Z,37.75
2022-12-17T19:02:15.155Z,38.85
2022-12-17T19:04:42.980Z,42.88
2022-12-17T19:07:10.566Z,47.88
2022-12-17T19:09:39.602Z,43.25
2022-12-17T19:12:08.496Z,45.97
2022-12-17T19:14:36.517Z,41.63
2022-12-17T19:17:05.113Z,49.03
2022-12-17T19:19:33.068Z,47.80
2022-12-17T19:22:00.450Z,53.80
2022-12-17T19:24:28.262Z,49.60
2022-12-17T19:26:55.287Z,61.85
2022-12-17T19:29:22.757Z,62.63
2022-12-17T19:31:49.904Z,56.22
2022-12-17T19:34:19.342Z,47.55
2022-12-17T19:36:47.810Z,60.92
2022-12-17T19:39:18.673Z,51.83
2022-12-17T19:41:46.059Z,51.35
2022-12-17T19:44:15.458Z,50.08
2022-12-17T19:46:43.182Z,49.63
2022-12-17T19:49:15.620Z,46.97
2022-12-17T19:51:44.360Z,46.78
2022-12-17T19:54:15.442Z,52.05
2022-12-17T19:56:44.443Z,51.08
2022-12-17T19:59:13.937Z,58.63
2022-12-17T20:01:44.384Z,51.72
2022-12-17T20:04:13.792Z,57.47
2022-12-17T20:06:40.817Z,42.28
2022-12-17T20:09:08.315Z,42.33
2022-12-17T20:11:36.251Z,49.65
2022-12-17T20:14:10.583Z,51.08
2022-12-17T20:16:40.217Z,52.80
2022-12-17T20:19:11.455Z,51.55
2022-12-17T20:21:41.134Z,44.13
2022-12-17T20:24:10.123Z,44.92
2022-12-17T20:26:37.365Z,38.72
2022-12-17T20:29:06.241Z,42.17
2022-12-17T20:31:34.308Z,47.88
2022-12-17T20:34:03.984Z,45.55
2022-12-17T20:36:31.572Z,37.05
2022-12-17T20:38:59.214Z,48.28
2022-12-17T20:41:28.686Z,49.38
2022-12-17T20:43:57.056Z,51.90
2022-12-17T20:46:25.400Z,54.90
2022-12-17T20:48:53.641Z,52.28
2022-12-17T20:51:25.973Z,48.08
2022-12-17T20:53:56.366Z,49.28
2022-12-17T20:56:25.528Z,41.35
2022-12-17T20:59:05.997Z,50.53
2022-12-17T21:01:35.231Z,51.70
2022-12-17T21:04:03.611Z,45.55
2022-12-17T21:06:36.477Z,45.08
2022-12-17T21:09:04.406Z,50.45
2022-12-17T21:11:34.098Z,57.38
2022-12-17T21:14:09.531Z,52.10
2022-12-17T21:16:38.869Z,53.20
2022-12-17T21:19:07.566Z,48.58
2022-12-17T21:21:36.830Z,52.08
2022-12-17T21:24:05.087Z,58.08
2022-12-17T21:26:37.682Z,53.25
2022-12-17T21:29:06.560Z,44.63
2022-12-17T21:31:36.379Z,54.35
2022-12-17T21:34:05.618Z,52.40
2022-12-17T21:36:34.144Z,51.28
2022-12-17T21:39:02.661Z,45.33
2022-12-17T21:41:44.993Z,57.03
2022-12-17T21:44:14.571Z,47.90
2022-12-17T21:46:46.749Z,41.03
2022-12-17T21:49:18.005Z,53.45
2022-12-17T21:51:45.221Z,58.38
2022-12-17T21:54:18.942Z,56.13
2022-12-17T21:56:47.059Z,47.88
2022-12-17T21:59:14.523Z,54.80
2022-12-17T22:01:41.510Z,67.53
2022-12-17T22:04:08.731Z,48.80
2022-12-17T22:06:41.425Z,56.05
2022-12-17T22:09:23.941Z,58.65
2022-12-17T22:12:21.033Z,54.88
2022-12-17T22:14:48.340Z,46.17
2022-12-17T22:17:16.074Z,46.58
2022-12-17T22:19:43.482Z,49.53
2022-12-17T22:22:10.308Z,45.10
2022-12-17T22:24:37.763Z,44.60
2022-12-17T22:27:09.542Z,46.90
2022-12-17T22:29:56.097Z,41.17
2022-12-17T22:32:41.686Z,42.00
2022-12-17T22:36:14.094Z,38.75
2022-12-17T22:41:44.625Z,52.88
2022-12-17T22:44:34.958Z,50.67
2022-12-17T22:44:42.204Z,42.55
2022-12-17T22:46:18.125Z,48.47
2022-12-17T22:48:45.301Z,53.80
2022-12-17T22:51:21.973Z,38.88
2022-12-17T22:54:03.160Z,51.58
2022-12-17T22:56:51.869Z,48.67
2022-12-17T22:59:18.841Z,40.47
2022-12-17T23:01:46.449Z,50.05
2022-12-17T23:04:14.768Z,53.13
2022-12-17T23:06:45.278Z,52.38
2022-12-17T23:09:19.138Z,58.92
2022-12-17T23:11:48.224Z,70.28
2022-12-17T23:14:15.292Z,68.43
2022-12-17T23:16:42.624Z,61.72
2022-12-17T23:19:09.633Z,66.80
2022-12-17T23:21:37.319Z,59.22
2022-12-17T23:24:04.614Z,66.63
2022-12-17T23:26:34.692Z,52.83
2022-12-17T23:29:20.541Z,44.90
2022-12-17T23:31:54.643Z,53.85
2022-12-17T23:34:21.605Z,46.10
2022-12-17T23:36:48.771Z,44.67
2022-12-17T23:39:15.749Z,51.40
2022-12-17T23:41:42.966Z,51.80
2022-12-17T23:45:14.529Z,49.47
2022-12-17T23:47:42.001Z,49.90
2022-12-17T23:50:10.498Z,48.88
2022-12-17T23:52:38.154Z,45.25
2022-12-17T23:55:06.832Z,51.42
2022-12-17T23:57:34.256Z,43.40
